createdAt,value
2023-03-24T00:02:04.602Z,31.67
2023-03-24T00:04:35.369Z,25.42
2023-03-24T00:07:05.806Z,24.10
2023-03-24T00:09:36.102Z,19.65
2023-03-24T00:12:06.667Z,24.30
2023-03-24T00:14:37.138Z,18.30
2023-03-24T00:17:16.177Z,23.30
2023-03-24T00:19:50.284Z,18.55
2023-03-24T00:22:23.652Z,20.90
2023-03-24T00:24:53.934Z,23.25
2023-03-24T00:27:24.962Z,18.77
2023-03-24T00:29:55.285Z,31.05
2023-03-24T00:32:25.464Z,21.10
2023-03-24T00:35:16.055Z,19.40
2023-03-24T00:37:47.075Z,21.98
2023-03-24T00:42:51.353Z,27.08
2023-03-24T00:45:25.356Z,23.73
2023-03-24T00:48:13.672Z,22.02
2023-03-24T00:50:48.342Z,17.63
2023-03-24T00:53:20.978Z,24.52
2023-03-24T00:55:52.416Z,26.20
2023-03-24T00:58:24.174Z,27.67
2023-03-24T01:00:58.608Z,27.05
2023-03-24T01:03:29.840Z,20.88
2023-03-24T01:06:18.662Z,22.98
2023-03-24T01:08:49.646Z,26.07
2023-03-24T01:11:20.453Z,17.75
2023-03-24T01:13:51.906Z,25.13
2023-03-24T01:16:22.739Z,19.48
2023-03-24T01:18:53.184Z,25.15
2023-03-24T01:21:23.689Z,26.53
2023-03-24T01:23:55.164Z,22.88
2023-03-24T01:26:25.767Z,23.58
2023-03-24T01:28:56.178Z,30.07
2023-03-24T01:34:12.364Z,23.27
2023-03-24T01:36:42.903Z,26.03
2023-03-24T01:39:13.177Z,20.05
2023-03-24T01:44:37.705Z,22.15
2023-03-24T01:47:11.150Z,26.67
2023-03-24T01:49:56.774Z,27.10
2023-03-24T01:55:22.466Z,25.27
2023-03-24T01:58:00.667Z,26.35
2023-03-24T02:00:40.512Z,22.35
2023-03-24T02:03:36.651Z,22.95
2023-03-24T02:06:09.314Z,26.20
2023-03-24T02:08:57.452Z,24.13
2023-03-24T02:11:47.377Z,22.67
2023-03-24T02:14:18.590Z,24.23
2023-03-24T02:17:25.761Z,30.85
2023-03-24T02:20:53.780Z,22.20
2023-03-24T02:23:35.806Z,25.23
2023-03-24T02:26:36.133Z,24.52
2023-03-24T02:29:36.798Z,22.92
2023-03-24T02:32:53.545Z,28.48
2023-03-24T02:36:06.870Z,25.48
2023-03-24T02:39:04.087Z,21.83
2023-03-24T02:41:42.639Z,27.83
2023-03-24T02:44:28.411Z,26.27
2023-03-24T02:47:26.827Z,24.92
2023-03-24T02:50:36.186Z,30.98
2023-03-24T02:53:19.095Z,24.10
2023-03-24T02:56:15.409Z,27.23
2023-03-24T02:59:18.947Z,27.40
2023-03-24T03:02:10.786Z,25.67
2023-03-24T03:05:10.565Z,25.83
2023-03-24T03:07:41.512Z,28.85
2023-03-24T03:10:41.239Z,27.90
2023-03-24T03:14:08.437Z,27.52
2023-03-24T03:17:02.251Z,25.90
2023-03-24T03:19:55.104Z,26.30
2023-03-24T03:23:07.988Z,28.17
2023-03-24T03:31:10.698Z,35.75
2023-03-24T03:34:23.591Z,40.20
2023-03-24T03:37:03.191Z,28.33
2023-03-24T03:39:38.241Z,29.33
2023-03-24T03:42:12.442Z,27.55
2023-03-24T03:44:43.478Z,27.05
2023-03-24T03:47:34.510Z,30.70
2023-03-24T03:50:07.195Z,26.77
2023-03-24T03:52:40.771Z,30.17
2023-03-24T03:55:13.060Z,92.03
2023-03-24T03:57:45.810Z,29.35
2023-03-24T04:00:27.739Z,36.72
2023-03-24T04:03:47.375Z,33.78
2023-03-24T04:06:57.361Z,45.47
2023-03-24T04:13:03.527Z,104.93
2023-03-24T04:16:06.074Z,307.02
2023-03-24T04:22:29.575Z,342.83
2023-03-24T04:25:32.478Z,354.30
2023-03-24T04:28:33.398Z,345.63
2023-03-24T04:31:28.882Z,433.20
2023-03-24T04:34:23.064Z,435.30
2023-03-24T04:37:06.520Z,417.42
2023-03-24T04:39:49.231Z,65.75
2023-03-24T04:45:35.815Z,58.90
2023-03-24T04:48:24.314Z,51.53
2023-03-24T04:51:15.427Z,46.88
2023-03-24T04:54:04.254Z,52.03
2023-03-24T04:57:08.420Z,44.13
2023-03-24T04:59:45.472Z,48.60
2023-03-24T05:02:34.230Z,41.30
2023-03-24T05:05:23.442Z,46.83
2023-03-24T05:10:40.097Z,29.77
2023-03-24T05:13:11.618Z,35.15
2023-03-24T05:15:52.584Z,30.27
2023-03-24T05:18:30.232Z,28.63
2023-03-24T05:21:02.442Z,42.22
2023-03-24T05:23:33.225Z,43.80
2023-03-24T05:26:03.775Z,27.53
2023-03-24T05:28:38.629Z,32.35
2023-03-24T05:31:09.362Z,30.40
2023-03-24T05:33:59.037Z,38.05
2023-03-24T05:36:47.168Z,35.72
2023-03-24T05:39:22.057Z,40.85
2023-03-24T05:41:59.339Z,38.30
2023-03-24T05:44:29.762Z,33.40
2023-03-24T05:47:18.647Z,35.63
2023-03-24T05:52:36.692Z,32.92
2023-03-24T05:55:27.632Z,32.63
2023-03-24T05:58:05.959Z,62.60
2023-03-24T06:00:46.981Z,190.48
2023-03-24T06:03:36.877Z,33.75
2023-03-24T06:06:25.456Z,35.38
2023-03-24T06:08:57.112Z,32.47
2023-03-24T06:11:29.023Z,34.83
2023-03-24T06:14:17.540Z,35.30
2023-03-24T06:17:01.791Z,34.67
2023-03-24T06:19:35.326Z,42.58
2023-03-24T06:22:22.977Z,32.85
2023-03-24T06:24:53.478Z,35.95
2023-03-24T06:27:29.262Z,35.97
2023-03-24T06:30:20.157Z,34.17
2023-03-24T06:35:36.274Z,33.90
2023-03-24T06:38:24.742Z,32.88
2023-03-24T06:41:13.270Z,30.38
2023-03-24T06:46:29.782Z,37.25
2023-03-24T06:49:00.074Z,30.00
2023-03-24T06:51:30.609Z,31.80
2023-03-24T06:54:19.371Z,33.42
2023-03-24T06:59:26.551Z,35.20
2023-03-24T07:01:58.026Z,30.45
2023-03-24T07:04:30.443Z,30.98
2023-03-24T07:09:47.149Z,30.70
2023-03-24T07:12:18.029Z,28.23
2023-03-24T07:17:33.637Z,30.23
2023-03-24T07:23:28.857Z,34.88
2023-03-24T07:26:20.031Z,31.33
2023-03-24T07:28:50.676Z,35.53
2023-03-24T07:34:25.862Z,27.90
2023-03-24T07:37:00.631Z,29.02
2023-03-24T07:39:33.535Z,32.35
2023-03-24T07:42:04.316Z,30.83
2023-03-24T07:47:30.499Z,29.23
2023-03-24T07:50:01.318Z,27.53
2023-03-24T07:52:32.649Z,29.70
2023-03-24T07:55:21.423Z,32.72
2023-03-24T07:58:10.165Z,29.90
2023-03-24T08:00:45.546Z,34.60
2023-03-24T08:09:42.623Z,31.92
2023-03-24T08:12:30.939Z,30.40
2023-03-24T08:15:01.437Z,31.07
2023-03-24T08:17:31.829Z,32.73
2023-03-24T08:20:04.706Z,25.85
2023-03-24T08:22:36.119Z,25.15
2023-03-24T08:25:06.459Z,30.15
2023-03-24T08:27:37.136Z,28.80
2023-03-24T08:30:09.916Z,30.45
2023-03-24T08:32:40.698Z,33.13
2023-03-24T08:35:33.873Z,34.25
2023-03-24T08:38:25.622Z,44.25
2023-03-24T08:40:55.840Z,38.13
2023-03-24T08:43:44.269Z,33.17
2023-03-24T08:46:36.480Z,36.03
2023-03-24T08:49:25.155Z,30.73
2023-03-24T08:51:55.558Z,24.97
2023-03-24T08:54:27.229Z,28.55
2023-03-24T08:56:57.729Z,27.40
2023-03-24T08:59:27.997Z,27.17
2023-03-24T09:01:58.532Z,32.13
2023-03-24T09:04:48.290Z,26.02
2023-03-24T09:07:36.943Z,26.35
2023-03-24T09:10:09.936Z,25.05
2023-03-24T09:15:26.428Z,25.55
2023-03-24T09:18:15.072Z,26.85
2023-03-24T09:20:45.636Z,27.73
2023-03-24T09:23:16.750Z,30.03
2023-03-24T09:25:48.138Z,25.63
2023-03-24T09:28:18.759Z,32.17
2023-03-24T09:30:49.405Z,22.33
2023-03-24T09:33:20.367Z,43.05
2023-03-24T09:36:00.555Z,24.27
2023-03-24T09:38:32.664Z,24.38
2023-03-24T09:41:05.149Z,31.45
2023-03-24T09:44:12.131Z,26.65
2023-03-24T09:46:49.013Z,31.90
2023-03-24T09:49:41.134Z,25.50
2023-03-24T09:52:17.653Z,27.20
2023-03-24T09:54:55.262Z,26.55
2023-03-24T09:57:31.397Z,23.83
2023-03-24T10:00:01.644Z,24.95
2023-03-24T10:09:18.400Z,24.95
2023-03-24T10:12:11.117Z,19.85
2023-03-24T10:14:53.526Z,26.73
2023-03-24T10:17:53.486Z,217.95
2023-03-24T10:23:41.374Z,27.08
2023-03-24T10:26:32.698Z,81.65
2023-03-24T10:29:27.849Z,30.50
2023-03-24T10:32:06.441Z,25.83
2023-03-24T10:34:37.521Z,24.90
2023-03-24T10:37:26.201Z,25.15
2023-03-24T10:39:56.513Z,26.73
2023-03-24T10:45:32.644Z,26.13
2023-03-24T10:48:06.693Z,23.17
2023-03-24T10:50:56.075Z,22.17
2023-03-24T10:53:26.778Z,20.95
2023-03-24T10:55:57.138Z,25.30
2023-03-24T10:58:48.400Z,28.37
2023-03-24T11:01:33.305Z,21.42
2023-03-24T11:04:23.268Z,30.25
2023-03-24T11:07:23.178Z,22.27
2023-03-24T11:10:01.893Z,22.92
2023-03-24T11:12:34.666Z,20.58
2023-03-24T11:15:35.772Z,17.77
2023-03-24T11:18:14.673Z,23.08
2023-03-24T11:21:10.364Z,21.25
2023-03-24T11:23:48.425Z,20.67
2023-03-24T11:26:24.568Z,25.67
2023-03-24T11:29:00.109Z,20.15
2023-03-24T11:31:40.633Z,27.95
2023-03-24T11:34:19.308Z,19.83
2023-03-24T11:39:39.969Z,30.42
2023-03-24T11:42:19.686Z,22.17
2023-03-24T11:44:55.412Z,28.67
2023-03-24T11:47:41.169Z,27.77
2023-03-24T11:50:40.458Z,31.33
2023-03-24T11:53:33.496Z,24.55
2023-03-24T11:56:12.813Z,27.30
2023-03-24T12:02:15.002Z,23.50
2023-03-24T12:05:24.077Z,25.95
2023-03-24T12:08:22.665Z,23.97
2023-03-24T12:11:19.725Z,21.17
2023-03-24T13:33:18.417Z,18.30
2023-03-24T13:35:59.895Z,19.88
2023-03-24T13:38:43.381Z,15.65
2023-03-24T13:41:29.881Z,15.75
2023-03-24T13:44:09.042Z,16.02
2023-03-24T13:47:05.140Z,15.93
2023-03-24T13:52:47.723Z,17.27
2023-03-24T13:55:41.756Z,17.52
2023-03-24T13:58:28.789Z,19.20
2023-03-24T14:01:15.610Z,15.98
2023-03-24T14:04:11.880Z,17.48
2023-03-24T14:06:49.349Z,18.77
2023-03-24T14:09:26.161Z,18.00
2023-03-24T14:12:08.673Z,14.60
2023-03-24T14:15:08.342Z,15.85
2023-03-24T14:17:46.555Z,18.80
2023-03-24T14:23:37.718Z,18.23
2023-03-24T14:26:32.626Z,18.10
2023-03-24T14:29:03.630Z,18.90
2023-03-24T14:32:16.977Z,15.77
2023-03-24T14:35:02.907Z,19.90
2023-03-24T14:37:35.780Z,18.23
2023-03-24T14:40:10.334Z,18.98
2023-03-24T14:42:42.643Z,15.50
2023-03-24T14:45:44.063Z,16.92
2023-03-24T14:48:45.332Z,16.95
2023-03-24T14:51:30.466Z,17.40
2023-03-24T14:54:39.854Z,16.75
2023-03-24T14:57:11.708Z,17.55
2023-03-24T14:59:44.740Z,16.52
2023-03-24T15:02:45.153Z,16.23
2023-03-24T15:05:30.189Z,20.58
2023-03-24T15:08:17.195Z,18.10
2023-03-24T15:11:07.533Z,15.88
2023-03-24T15:13:41.132Z,17.25
2023-03-24T15:16:14.912Z,16.85
2023-03-24T15:19:08.060Z,16.50
2023-03-24T15:21:44.609Z,14.60
2023-03-24T15:24:34.785Z,14.65
2023-03-24T15:27:20.654Z,15.45
2023-03-24T15:29:57.428Z,17.55
2023-03-24T15:32:29.827Z,16.27
2023-03-24T15:35:02.810Z,13.43
2023-03-24T15:37:43.218Z,17.13
2023-03-24T15:40:32.858Z,13.52
2023-03-24T15:43:05.998Z,16.20
2023-03-24T15:48:27.405Z,13.23
2023-03-24T15:51:04.624Z,15.15
2023-03-24T15:54:01.489Z,12.98
2023-03-24T15:56:34.513Z,17.27
2023-03-24T15:59:14.236Z,17.30
2023-03-24T16:01:45.503Z,20.38
2023-03-24T16:04:23.121Z,14.50
2023-03-24T16:06:57.309Z,14.27
2023-03-24T16:09:29.584Z,17.70
2023-03-24T16:11:59.914Z,15.75
2023-03-24T16:14:33.017Z,16.83
2023-03-24T16:17:05.559Z,16.65
2023-03-24T16:19:35.840Z,14.48
2023-03-24T16:22:17.345Z,14.85
2023-03-24T16:24:47.679Z,14.88
2023-03-24T16:27:18.490Z,14.45
2023-03-24T16:29:50.073Z,14.20
2023-03-24T16:32:20.367Z,15.38
2023-03-24T16:34:50.750Z,15.53
2023-03-24T16:37:21.273Z,17.53
2023-03-24T16:39:51.794Z,18.30
2023-03-24T16:42:22.103Z,16.13
2023-03-24T16:44:52.610Z,17.42
2023-03-24T16:47:24.098Z,16.20
2023-03-24T16:49:54.435Z,15.00
2023-03-24T16:52:24.718Z,15.05
2023-03-24T16:54:56.642Z,14.95
2023-03-24T16:57:26.967Z,15.25
2023-03-24T16:59:57.249Z,15.80
2023-03-24T17:02:50.940Z,15.52
2023-03-24T17:05:29.998Z,16.30
2023-03-24T17:08:00.779Z,15.10
2023-03-24T17:10:31.035Z,16.70
2023-03-24T17:13:01.622Z,16.07
2023-03-24T17:15:34.157Z,16.33
2023-03-24T17:18:22.829Z,16.10
2023-03-24T17:20:53.722Z,15.32
2023-03-24T17:23:24.390Z,15.63
2023-03-24T17:25:54.813Z,16.00
2023-03-24T17:28:25.029Z,15.55
2023-03-24T17:30:55.329Z,16.98
2023-03-24T17:33:25.654Z,16.67
2023-03-24T17:35:56.815Z,15.95
2023-03-24T17:38:27.238Z,16.27
2023-03-24T17:41:06.389Z,17.40
2023-03-24T17:43:36.887Z,17.35
